sensor_id;sensor_type;location;lat;lon;timestamp;pressure;altitude;pressure_sealevel;temperature;humidity
3206;BME280;1615;53.602;11.418;2022-07-30T00:00:34;101284.19;;;19.99;100.00
3206;BME280;1615;53.602;11.418;2022-07-30T00:02:59;101278.63;;;19.99;100.00
3206;BME280;1615;53.602;11.418;2022-07-30T00:05:24;101280.94;;;19.97;100.00
3206;BME280;1615;53.602;11.418;2022-07-30T00:07:50;101280.59;;;19.98;100.00
3206;BME280;1615;53.602;11.418;2022-07-30T00:10:15;101284.41;;;19.94;100.00
3206;BME280;1615;53.602;11.418;2022-07-30T00:12:40;101274.56;;;19.96;100.00
3206;BME280;1615;53.602;11.418;2022-07-30T00:15:06;101273.06;;;19.99;100.00
3206;BME280;1615;53.602;11.418;2022-07-30T00:17:32;101263.09;;;19.98;100.00
3206;BME280;1615;53.602;11.418;2022-07-30T00:19:57;101264.34;;;19.88;100.00
3206;BME280;1615;53.602;11.418;2022-07-30T00:22:22;101257.78;;;19.72;100.00
3206;BME280;1615;53.602;11.418;2022-07-30T00:24:48;101261.84;;;19.75;100.00
3206;BME280;1615;53.602;11.418;2022-07-30T00:27:13;101181.03;;;19.39;100.00
3206;BME280;1615;53.602;11.418;2022-07-30T00:29:39;101250.97;;;19.82;100.00
3206;BME280;1615;53.602;11.418;2022-07-30T00:32:04;101256.28;;;19.75;100.00
3206;BME280;1615;53.602;11.418;2022-07-30T00:34:30;101254.91;;;19.81;100.00
3206;BME280;1615;53.602;11.418;2022-07-30T00:36:55;101260.22;;;19.74;100.00
3206;BME280;1615;53.602;11.418;2022-07-30T00:39:20;101198.44;;;19.36;100.00
3206;BME280;1615;53.602;11.418;2022-07-30T00:41:54;101242.59;;;19.70;100.00
3206;BME280;1615;53.602;11.418;2022-07-30T00:44:19;101157.72;;;19.11;100.00
3206;BME280;1615;53.602;11.418;2022-07-30T00:46:44;101239.91;;;19.61;100.00
3206;BME280;1615;53.602;11.418;2022-07-30T00:49:10;101235.13;;;19.62;100.00
3206;BME280;1615;53.602;11.418;2022-07-30T00:51:35;101226.41;;;19.51;100.00
3206;BME280;1615;53.602;11.418;2022-07-30T00:54:01;101195.16;;;19.34;100.00
3206;BME280;1615;53.602;11.418;2022-07-30T00:56:26;101237.91;;;19.62;100.00
3206;BME280;1615;53.602;11.418;2022-07-30T00:58:52;101234.53;;;19.56;100.00
3206;BME280;1615;53.602;11.418;2022-07-30T01:01:17;101232.56;;;19.57;100.00
3206;BME280;1615;53.602;11.418;2022-07-30T01:03:42;101239.28;;;19.56;100.00
3206;BME280;1615;53.602;11.418;2022-07-30T01:06:07;101219.81;;;19.56;100.00
3206;BME280;1615;53.602;11.418;2022-07-30T01:08:33;101224.00;;;19.62;100.00
3206;BME280;1615;53.602;11.418;2022-07-30T01:10:58;101039.09;;;18.50;100.00
3206;BME280;1615;53.602;11.418;2022-07-30T01:13:24;101228.66;;;19.58;100.00
3206;BME280;1615;53.602;11.418;2022-07-30T01:15:49;101226.19;;;19.56;100.00
3206;BME280;1615;53.602;11.418;2022-07-30T01:18:16;101219.59;;;19.61;100.00
3206;BME280;1615;53.602;11.418;2022-07-30T01:20:47;101204.50;;;19.50;100.00
3206;BME280;1615;53.602;11.418;2022-07-30T01:23:26;101214.78;;;19.70;100.00
3206;BME280;1615;53.602;11.418;2022-07-30T01:25:57;101218.00;;;19.72;100.00
3206;BME280;1615;53.602;11.418;2022-07-30T01:28:29;101201.50;;;19.55;100.00
3206;BME280;1615;53.602;11.418;2022-07-30T01:30:56;101212.66;;;19.67;100.00
3206;BME280;1615;53.602;11.418;2022-07-30T01:33:24;101217.44;;;19.66;100.00
3206;BME280;1615;53.602;11.418;2022-07-30T01:35:50;101168.06;;;19.31;100.00
3206;BME280;1615;53.602;11.418;2022-07-30T01:38:19;101212.19;;;19.65;100.00
3206;BME280;1615;53.602;11.418;2022-07-30T01:40:49;101226.09;;;19.65;100.00
3206;BME280;1615;53.602;11.418;2022-07-30T01:43:16;101203.81;;;19.53;100.00
3206;BME280;1615;53.602;11.418;2022-07-30T01:45:43;101213.81;;;19.66;100.00
3206;BME280;1615;53.602;11.418;2022-07-30T01:48:12;101217.84;;;19.56;100.00
3206;BME280;1615;53.602;11.418;2022-07-30T01:50:43;101219.81;;;19.56;100.00
3206;BME280;1615;53.602;11.418;2022-07-30T01:53:14;101219.81;;;19.56;100.00
3206;BME280;1615;53.602;11.418;2022-07-30T01:55:41;101208.00;;;19.59;100.00
3206;BME280;1615;53.602;11.418;2022-07-30T01:58:09;101211.78;;;19.54;100.00
3206;BME280;1615;53.602;11.418;2022-07-30T02:00:37;101123.97;;;19.00;100.00
3206;BME280;1615;53.602;11.418;2022-07-30T02:03:04;101126.81;;;18.92;100.00
3206;BME280;1615;53.602;11.418;2022-07-30T02:05:31;101210.19;;;19.53;100.00
3206;BME280;1615;53.602;11.418;2022-07-30T02:10:51;101089.44;;;18.69;100.00
3206;BME280;1615;53.602;11.418;2022-07-30T02:13:24;101211.84;;;19.34;100.00
3206;BME280;1615;53.602;11.418;2022-07-30T02:16:02;101213.88;;;19.45;100.00
3206;BME280;1615;53.602;11.418;2022-07-30T02:18:42;101112.34;;;18.86;100.00
3206;BME280;1615;53.602;11.418;2022-07-30T02:21:09;101203.03;;;19.32;100.00
3206;BME280;1615;53.602;11.418;2022-07-30T02:23:38;101163.41;;;19.14;100.00
3206;BME280;1615;53.602;11.418;2022-07-30T02:26:07;101140.84;;;18.95;100.00
3206;BME280;1615;53.602;11.418;2022-07-30T02:28:37;101201.41;;;19.31;100.00
3206;BME280;1615;53.602;11.418;2022-07-30T02:31:07;101198.44;;;19.36;100.00
3206;BME280;1615;53.602;11.418;2022-07-30T02:33:36;101129.59;;;18.92;100.00
3206;BME280;1615;53.602;11.418;2022-07-30T02:36:05;101199.50;;;19.23;100.00
3206;BME280;1615;53.602;11.418;2022-07-30T02:38:31;101068.44;;;18.39;100.00
3206;BME280;1615;53.602;11.418;2022-07-30T02:40:59;101195.94;;;19.14;100.00
3206;BME280;1615;53.602;11.418;2022-07-30T02:43:26;101196.53;;;19.07;100.00
3206;BME280;1615;53.602;11.418;2022-07-30T02:45:53;101202.22;;;19.11;100.00
3206;BME280;1615;53.602;11.418;2022-07-30T02:48:20;101131.38;;;18.55;100.00
3206;BME280;1615;53.602;11.418;2022-07-30T02:50:48;101142.94;;;18.57;100.00
3206;BME280;1615;53.602;11.418;2022-07-30T02:53:16;101214.88;;;19.00;100.00
3206;BME280;1615;53.602;11.418;2022-07-30T02:55:43;101209.53;;;18.95;100.00
3206;BME280;1615;53.602;11.418;2022-07-30T02:58:10;101219.28;;;19.01;100.00
3206;BME280;1615;53.602;11.418;2022-07-30T03:00:37;101214.59;;;18.93;100.00
3206;BME280;1615;53.602;11.418;2022-07-30T03:03:04;101208.56;;;18.91;100.00
3206;BME280;1615;53.602;11.418;2022-07-30T03:05:32;101211.16;;;18.96;100.00
3206;BME280;1615;53.602;11.418;2022-07-30T03:07:59;101207.75;;;18.90;100.00
3206;BME280;1615;53.602;11.418;2022-07-30T03:10:25;101210.88;;;18.89;100.00
3206;BME280;1615;53.602;11.418;2022-07-30T03:12:52;101210.19;;;18.92;100.00
3206;BME280;1615;53.602;11.418;2022-07-30T03:15:18;101222.47;;;18.91;100.00
3206;BME280;1615;53.602;11.418;2022-07-30T03:17:45;101216.91;;;18.91;100.00
3206;BME280;1615;53.602;11.418;2022-07-30T03:20:16;101215.09;;;18.95;100.00
3206;BME280;1615;53.602;11.418;2022-07-30T03:22:43;101099.75;;;18.19;100.00
3206;BME280;1615;53.602;11.418;2022-07-30T03:25:14;101159.19;;;18.47;100.00
3206;BME280;1615;53.602;11.418;2022-07-30T03:27:41;101220.38;;;18.88;100.00
3206;BME280;1615;53.602;11.418;2022-07-30T03:30:07;101192.03;;;18.74;100.00
3206;BME280;1615;53.602;11.418;2022-07-30T03:32:34;101168.38;;;18.39;100.00
3206;BME280;1615;53.602;11.418;2022-07-30T03:35:00;101224.13;;;18.63;100.00
3206;BME280;1615;53.602;11.418;2022-07-30T03:37:27;101216.25;;;18.65;100.00
3206;BME280;1615;53.602;11.418;2022-07-30T03:39:53;101226.31;;;18.78;100.00
3206;BME280;1615;53.602;11.418;2022-07-30T03:42:20;101223.75;;;18.73;100.00
3206;BME280;1615;53.602;11.418;2022-07-30T03:44:46;101197.69;;;18.57;100.00
3206;BME280;1615;53.602;11.418;2022-07-30T03:47:13;101147.97;;;18.43;100.00
3206;BME280;1615;53.602;11.418;2022-07-30T03:49:40;101107.13;;;18.15;100.00
3206;BME280;1615;53.602;11.418;2022-07-30T03:52:05;101121.38;;;18.34;100.00
3206;BME280;1615;53.602;11.418;2022-07-30T03:54:31;101216.31;;;18.85;100.00
3206;BME280;1615;53.602;11.418;2022-07-30T03:56:59;101230.94;;;18.94;100.00
3206;BME280;1615;53.602;11.418;2022-07-30T03:59:25;101229.44;;;18.97;100.00
3206;BME280;1615;53.602;11.418;2022-07-30T04:01:51;101169.28;;;18.51;100.00
3206;BME280;1615;53.602;11.418;2022-07-30T04:04:16;101225.88;;;18.96;100.00
3206;BME280;1615;53.602;11.418;2022-07-30T04:06:41;101133.72;;;18.45;100.00
3206;BME280;1615;53.602;11.418;2022-07-30T04:09:08;101230.00;;;19.11;100.00
3206;BME280;1615;53.602;11.418;2022-07-30T04:11:35;101230.47;;;19.13;100.00
3206;BME280;1615;53.602;11.418;2022-07-30T04:14:01;101228.09;;;19.03;100.00
3206;BME280;1615;53.602;11.418;2022-07-30T04:16:46;101128.47;;;18.52;100.00
3206;BME280;1615;53.602;11.418;2022-07-30T04:19:28;101222.00;;;19.09;100.00
3206;BME280;1615;53.602;11.418;2022-07-30T04:21:56;101223.50;;;19.07;100.00
3206;BME280;1615;53.602;11.418;2022-07-30T04:24:23;101211.84;;;19.13;100.00
3206;BME280;1615;53.602;11.418;2022-07-30T04:26:50;101230.97;;;19.15;100.00
3206;BME280;1615;53.602;11.418;2022-07-30T04:29:17;101185.66;;;18.94;100.00
3206;BME280;1615;53.602;11.418;2022-07-30T04:31:42;101221.34;;;19.33;100.00
3206;BME280;1615;53.602;11.418;2022-07-30T04:34:11;101229.06;;;19.48;100.00
3206;BME280;1615;53.602;11.418;2022-07-30T04:36:37;101226.19;;;19.56;100.00
3206;BME280;1615;53.602;11.418;2022-07-30T04:39:03;101219.13;;;19.59;100.00
3206;BME280;1615;53.602;11.418;2022-07-30T04:41:28;101220.75;;;19.60;100.00
3206;BME280;1615;53.602;11.418;2022-07-30T04:43:54;101185.19;;;19.33;100.00
3206;BME280;1615;53.602;11.418;2022-07-30T04:46:19;101131.81;;;19.19;100.00
3206;BME280;1615;53.602;11.418;2022-07-30T04:48:44;101224.41;;;19.72;100.00
3206;BME280;1615;53.602;11.418;2022-07-30T04:51:20;101218.28;;;19.79;100.00
3206;BME280;1615;53.602;11.418;2022-07-30T04:53:48;101225.72;;;19.87;100.00
3206;BME280;1615;53.602;11.418;2022-07-30T04:56:15;101182.53;;;19.36;100.00
3206;BME280;1615;53.602;11.418;2022-07-30T04:58:43;101223.84;;;19.79;100.00
3206;BME280;1615;53.602;11.418;2022-07-30T05:01:11;101217.47;;;19.78;100.00
3206;BME280;1615;53.602;11.418;2022-07-30T05:03:41;101212.50;;;19.84;100.00
3206;BME280;1615;53.602;11.418;2022-07-30T05:06:06;101217.03;;;19.88;100.00
3206;BME280;1615;53.602;11.418;2022-07-30T05:08:32;101169.28;;;19.54;100.00
3206;BME280;1615;53.602;11.418;2022-07-30T05:10:58;101217.66;;;20.06;100.00
3206;BME280;1615;53.602;11.418;2022-07-30T05:13:24;101221.75;;;20.08;100.00
3206;BME280;1615;53.602;11.418;2022-07-30T05:15:50;101188.81;;;19.78;100.00
3206;BME280;1615;53.602;11.418;2022-07-30T05:18:15;101113.66;;;19.21;100.00
3206;BME280;1615;53.602;11.418;2022-07-30T05:20:40;101236.22;;;20.14;100.00
3206;BME280;1615;53.602;11.418;2022-07-30T05:23:06;101242.41;;;20.31;100.00
3206;BME280;1615;53.602;11.418;2022-07-30T05:25:31;101161.47;;;19.92;100.00
3206;BME280;1615;53.602;11.418;2022-07-30T05:27:56;101151.72;;;19.86;100.00
3206;BME280;1615;53.602;11.418;2022-07-30T05:30:23;101232.66;;;20.49;100.00
3206;BME280;1615;53.602;11.418;2022-07-30T05:32:48;101235.31;;;20.58;100.00
3206;BME280;1615;53.602;11.418;2022-07-30T05:35:14;101178.81;;;20.33;100.00
3206;BME280;1615;53.602;11.418;2022-07-30T05:37:39;101148.28;;;20.25;100.00
3206;BME280;1615;53.602;11.418;2022-07-30T05:40:05;101235.09;;;20.75;100.00
3206;BME280;1615;53.602;11.418;2022-07-30T05:42:30;101242.41;;;20.79;100.00
3206;BME280;1615;53.602;11.418;2022-07-30T05:44:56;101238.81;;;20.79;100.00
3206;BME280;1615;53.602;11.418;2022-07-30T05:47:21;101238.13;;;20.94;100.00
3206;BME280;1615;53.602;11.418;2022-07-30T05:49:47;101244.19;;;20.96;100.00
3206;BME280;1615;53.602;11.418;2022-07-30T05:52:12;101250.16;;;21.10;100.00
3206;BME280;1615;53.602;11.418;2022-07-30T05:54:38;101170.28;;;20.78;100.00
3206;BME280;1615;53.602;11.418;2022-07-30T05:57:03;101248.56;;;21.48;100.00
3206;BME280;1615;53.602;11.418;2022-07-30T05:59:29;101247.69;;;21.60;100.00
3206;BME280;1615;53.602;11.418;2022-07-30T06:01:54;101242.09;;;21.72;100.00
3206;BME280;1615;53.602;11.418;2022-07-30T06:04:19;101232.03;;;21.83;100.00
3206;BME280;1615;53.602;11.418;2022-07-30T06:06:45;101223.22;;;21.96;100.00
3206;BME280;1615;53.602;11.418;2022-07-30T06:09:10;101240.44;;;22.29;100.00
3206;BME280;1615;53.602;11.418;2022-07-30T06:11:35;101246.34;;;22.40;100.00
3206;BME280;1615;53.602;11.418;2022-07-30T06:14:00;101239.09;;;22.39;100.00
3206;BME280;1615;53.602;11.418;2022-07-30T06:16:26;101249.22;;;22.43;100.00
3206;BME280;1615;53.602;11.418;2022-07-30T06:18:51;101245.84;;;22.38;100.00
3206;BME280;1615;53.602;11.418;2022-07-30T06:21:16;101197.47;;;22.03;100.00
3206;BME280;1615;53.602;11.418;2022-07-30T06:23:42;101252.19;;;22.50;100.00
3206;BME280;1615;53.602;11.418;2022-07-30T06:26:07;101265.38;;;22.65;100.00
3206;BME280;1615;53.602;11.418;2022-07-30T06:28:32;101254.53;;;22.64;100.00
3206;BME280;1615;53.602;11.418;2022-07-30T06:30:58;101251.66;;;22.60;100.00
3206;BME280;1615;53.602;11.418;2022-07-30T06:33:23;101248.50;;;22.62;100.00
3206;BME280;1615;53.602;11.418;2022-07-30T06:35:48;101253.09;;;22.70;100.00
3206;BME280;1615;53.602;11.418;2022-07-30T06:38:14;101254.50;;;22.79;100.00
3206;BME280;1615;53.602;11.418;2022-07-30T06:40:39;101242.41;;;22.91;100.00
3206;BME280;1615;53.602;11.418;2022-07-30T06:43:04;101240.66;;;23.02;100.00
3206;BME280;1615;53.602;11.418;2022-07-30T06:45:30;101242.03;;;22.92;100.00
3206;BME280;1615;53.602;11.418;2022-07-30T06:47:56;101243.31;;;23.14;100.00
3206;BME280;1615;53.602;11.418;2022-07-30T06:50:23;101249.34;;;23.31;100.00
3206;BME280;1615;53.602;11.418;2022-07-30T06:52:48;101247.94;;;23.41;100.00
3206;BME280;1615;53.602;11.418;2022-07-30T06:55:14;101249.19;;;23.24;100.00
3206;BME280;1615;53.602;11.418;2022-07-30T06:57:39;101209.81;;;22.98;100.00
3206;BME280;1615;53.602;11.418;2022-07-30T07:00:05;101251.34;;;23.31;100.00
3206;BME280;1615;53.602;11.418;2022-07-30T07:02:31;101142.72;;;22.64;100.00
3206;BME280;1615;53.602;11.418;2022-07-30T07:04:56;101234.91;;;23.29;100.00
3206;BME280;1615;53.602;11.418;2022-07-30T07:07:22;101245.28;;;23.29;100.00
3206;BME280;1615;53.602;11.418;2022-07-30T07:09:47;101246.84;;;23.26;100.00
3206;BME280;1615;53.602;11.418;2022-07-30T07:12:12;101244.31;;;23.21;100.00
3206;BME280;1615;53.602;11.418;2022-07-30T07:14:37;101203.59;;;22.89;100.00
3206;BME280;1615;53.602;11.418;2022-07-30T07:17:03;101243.69;;;23.28;100.00
3206;BME280;1615;53.602;11.418;2022-07-30T07:19:28;101208.59;;;23.15;100.00
3206;BME280;1615;53.602;11.418;2022-07-30T07:21:53;101245.31;;;23.48;100.00
3206;BME280;1615;53.602;11.418;2022-07-30T07:24:19;101223.59;;;23.60;100.00
3206;BME280;1615;53.602;11.418;2022-07-30T07:26:44;101241.44;;;23.94;99.81
3206;BME280;1615;53.602;11.418;2022-07-30T07:29:10;101247.03;;;24.13;95.87
3206;BME280;1615;53.602;11.418;2022-07-30T07:31:35;101232.41;;;24.23;95.24
3206;BME280;1615;53.602;11.418;2022-07-30T07:34:01;101154.28;;;23.76;94.19
3206;BME280;1615;53.602;11.418;2022-07-30T07:36:26;101184.38;;;24.02;93.98
3206;BME280;1615;53.602;11.418;2022-07-30T07:38:52;101226.72;;;24.42;94.45
3206;BME280;1615;53.602;11.418;2022-07-30T07:41:17;101177.41;;;24.15;93.16
3206;BME280;1615;53.602;11.418;2022-07-30T07:43:43;101234.75;;;24.66;92.03
3206;BME280;1615;53.602;11.418;2022-07-30T07:46:08;101244.16;;;24.77;91.03
3206;BME280;1615;53.602;11.418;2022-07-30T07:48:33;101199.44;;;24.61;90.14
3206;BME280;1615;53.602;11.418;2022-07-30T07:50:59;101235.50;;;24.89;89.22
3206;BME280;1615;53.602;11.418;2022-07-30T07:53:25;101236.09;;;25.01;94.69
3206;BME280;1615;53.602;11.418;2022-07-30T07:55:50;101235.72;;;25.03;92.94
3206;BME280;1615;53.602;11.418;2022-07-30T07:58:16;101200.13;;;24.81;95.67
3206;BME280;1615;53.602;11.418;2022-07-30T08:00:41;101233.34;;;25.05;100.00
3206;BME280;1615;53.602;11.418;2022-07-30T08:03:07;101190.78;;;24.99;97.78
3206;BME280;1615;53.602;11.418;2022-07-30T08:05:32;101224.25;;;25.15;97.33
3206;BME280;1615;53.602;11.418;2022-07-30T08:07:58;101154.28;;;24.70;99.67
3206;BME280;1615;53.602;11.418;2022-07-30T08:10:23;101223.94;;;25.20;99.20
3206;BME280;1615;53.602;11.418;2022-07-30T08:12:49;101227.56;;;25.20;98.94
3206;BME280;1615;53.602;11.418;2022-07-30T08:15:14;101238.53;;;25.29;97.14
3206;BME280;1615;53.602;11.418;2022-07-30T08:17:44;101226.53;;;25.32;98.47
3206;BME280;1615;53.602;11.418;2022-07-30T08:20:10;101239.47;;;25.40;94.01
3206;BME280;1615;53.602;11.418;2022-07-30T08:22:36;101237.88;;;25.39;93.17
3206;BME280;1615;53.602;11.418;2022-07-30T08:25:03;101234.72;;;25.44;92.61
3206;BME280;1615;53.602;11.418;2022-07-30T08:27:28;101233.09;;;25.43;95.27
3206;BME280;1615;53.602;11.418;2022-07-30T08:29:53;101139.38;;;24.92;92.39
3206;BME280;1615;53.602;11.418;2022-07-30T08:32:19;101185.31;;;25.10;92.48
3206;BME280;1615;53.602;11.418;2022-07-30T08:34:44;101232.25;;;25.39;92.66
3206;BME280;1615;53.602;11.418;2022-07-30T08:37:09;101230.72;;;25.45;91.09
3206;BME280;1615;53.602;11.418;2022-07-30T08:39:35;101225.94;;;25.49;91.10
3206;BME280;1615;53.602;11.418;2022-07-30T08:42:02;101239.22;;;25.52;89.53
3206;BME280;1615;53.602;11.418;2022-07-30T08:44:29;101230.81;;;25.52;89.77
3206;BME280;1615;53.602;11.418;2022-07-30T08:46:55;101229.59;;;25.53;89.35
3206;BME280;1615;53.602;11.418;2022-07-30T08:49:23;101199.59;;;25.27;90.15
3206;BME280;1615;53.602;11.418;2022-07-30T08:51:49;101233.28;;;25.57;89.80
3206;BME280;1615;53.602;11.418;2022-07-30T08:54:15;101226.03;;;25.56;92.08
3206;BME280;1615;53.602;11.418;2022-07-30T08:56:40;101235.41;;;25.67;91.10
3206;BME280;1615;53.602;11.418;2022-07-30T08:59:06;101189.44;;;25.49;88.76
3206;BME280;1615;53.602;11.418;2022-07-30T09:01:32;101236.00;;;25.83;86.88
3206;BME280;1615;53.602;11.418;2022-07-30T09:03:57;101239.22;;;25.85;86.99
3206;BME280;1615;53.602;11.418;2022-07-30T09:06:22;101231.22;;;25.87;85.56
3206;BME280;1615;53.602;11.418;2022-07-30T09:08:48;101232.00;;;25.87;85.04
3206;BME280;1615;53.602;11.418;2022-07-30T09:11:13;101241.34;;;25.62;85.66
3206;BME280;1615;53.602;11.418;2022-07-30T09:13:40;101235.19;;;25.86;85.01
3206;BME280;1615;53.602;11.418;2022-07-30T09:16:07;101240.88;;;25.89;84.66
3206;BME280;1615;53.602;11.418;2022-07-30T09:18:42;101240.97;;;25.96;82.46
3206;BME280;1615;53.602;11.418;2022-07-30T09:21:24;101241.78;;;25.97;81.95
3206;BME280;1615;53.602;11.418;2022-07-30T09:26:21;101233.06;;;26.05;81.63
3206;BME280;1615;53.602;11.418;2022-07-30T09:28:46;101232.69;;;26.10;80.84
3206;BME280;1615;53.602;11.418;2022-07-30T09:31:11;101240.31;;;26.10;80.67
3206;BME280;1615;53.602;11.418;2022-07-30T09:33:42;101235.94;;;26.12;80.79
3206;BME280;1615;53.602;11.418;2022-07-30T09:36:10;101234.00;;;26.20;80.55
3206;BME280;1615;53.602;11.418;2022-07-30T09:38:46;101235.66;;;26.28;80.32
3206;BME280;1615;53.602;11.418;2022-07-30T09:41:13;101225.28;;;26.35;78.20
3206;BME280;1615;53.602;11.418;2022-07-30T09:43:49;101233.00;;;26.42;77.34
3206;BME280;1615;53.602;11.418;2022-07-30T09:46:15;101150.22;;;25.96;76.11
3206;BME280;1615;53.602;11.418;2022-07-30T09:48:41;101183.38;;;26.20;76.03
3206;BME280;1615;53.602;11.418;2022-07-30T09:51:07;101225.13;;;26.58;75.11
3206;BME280;1615;53.602;11.418;2022-07-30T09:53:33;101158.44;;;26.15;74.67
3206;BME280;1615;53.602;11.418;2022-07-30T09:55:59;101219.13;;;26.63;75.13
3206;BME280;1615;53.602;11.418;2022-07-30T09:58:37;101220.72;;;26.60;75.15
3206;BME280;1615;53.602;11.418;2022-07-30T10:01:02;101225.16;;;26.65;74.74
3206;BME280;1615;53.602;11.418;2022-07-30T10:03:28;101193.34;;;26.57;75.02
3206;BME280;1615;53.602;11.418;2022-07-30T10:05:56;101207.03;;;26.59;73.52
3206;BME280;1615;53.602;11.418;2022-07-30T10:11:13;101144.06;;;26.27;73.65
3206;BME280;1615;53.602;11.418;2022-07-30T10:13:39;101225.53;;;26.60;73.49
3206;BME280;1615;53.602;11.418;2022-07-30T10:16:06;101176.22;;;26.26;73.95
3206;BME280;1615;53.602;11.418;2022-07-30T10:18:31;101203.25;;;26.41;72.36
3206;BME280;1615;53.602;11.418;2022-07-30T10:20:58;101185.91;;;26.32;70.22
3206;BME280;1615;53.602;11.418;2022-07-30T10:23:25;101181.88;;;26.33;70.08
3206;BME280;1615;53.602;11.418;2022-07-30T10:25:55;101223.06;;;26.55;71.02
3206;BME280;1615;53.602;11.418;2022-07-30T10:28:21;101218.38;;;26.26;72.40
3206;BME280;1615;53.602;11.418;2022-07-30T10:30:51;101215.31;;;26.45;72.80
3206;BME280;1615;53.602;11.418;2022-07-30T10:33:17;101208.66;;;26.60;70.33
3206;BME280;1615;53.602;11.418;2022-07-30T10:35:43;101207.59;;;26.82;69.56
3206;BME280;1615;53.602;11.418;2022-07-30T10:38:10;101206.09;;;26.98;68.38
3206;BME280;1615;53.602;11.418;2022-07-30T10:40:41;101136.69;;;26.59;67.07
3206;BME280;1615;53.602;11.418;2022-07-30T10:48:35;101217.97;;;27.32;62.34
3206;BME280;1615;53.602;11.418;2022-07-30T10:51:01;101164.59;;;26.85;64.11
3206;BME280;1615;53.602;11.418;2022-07-30T10:53:37;101199.44;;;27.27;64.09
3206;BME280;1615;53.602;11.418;2022-07-30T10:59:08;101199.13;;;27.50;58.41
3206;BME280;1615;53.602;11.418;2022-07-30T11:04:17;101206.00;;;27.59;57.83
3206;BME280;1615;53.602;11.418;2022-07-30T11:06:44;101203.59;;;27.58;58.06
3206;BME280;1615;53.602;11.418;2022-07-30T11:09:38;101201.19;;;27.67;57.95
3206;BME280;1615;53.602;11.418;2022-07-30T11:12:07;101159.59;;;27.25;58.30
3206;BME280;1615;53.602;11.418;2022-07-30T11:17:11;101139.25;;;26.78;57.69
3206;BME280;1615;53.602;11.418;2022-07-30T11:22:32;101201.09;;;27.42;56.24
3206;BME280;1615;53.602;11.418;2022-07-30T11:25:09;101193.03;;;27.37;56.03
3206;BME280;1615;53.602;11.418;2022-07-30T11:27:55;101177.69;;;27.21;56.45
3206;BME280;1615;53.602;11.418;2022-07-30T11:35:24;101203.94;;;27.46;56.51
3206;BME280;1615;53.602;11.418;2022-07-30T11:40:29;101202.66;;;27.26;55.50
3206;BME280;1615;53.602;11.418;2022-07-30T11:45:51;101201.78;;;27.15;56.82
3206;BME280;1615;53.602;11.418;2022-07-30T11:48:19;101196.19;;;27.22;55.67
3206;BME280;1615;53.602;11.418;2022-07-30T11:50:46;101181.63;;;27.13;55.12
3206;BME280;1615;53.602;11.418;2022-07-30T11:55:42;101186.13;;;27.17;56.01
3206;BME280;1615;53.602;11.418;2022-07-30T11:58:10;101188.22;;;27.41;56.04
3206;BME280;1615;53.602;11.418;2022-07-30T12:00:40;101189.38;;;27.23;56.12
3206;BME280;1615;53.602;11.418;2022-07-30T12:03:16;101199.03;;;27.22;56.57
3206;BME280;1615;53.602;11.418;2022-07-30T12:05:42;101191.41;;;27.26;56.16
3206;BME280;1615;53.602;11.418;2022-07-30T12:08:09;101193.88;;;27.48;55.53
3206;BME280;1615;53.602;11.418;2022-07-30T12:10:34;101194.72;;;27.59;54.88
3206;BME280;1615;53.602;11.418;2022-07-30T12:13:13;101218.09;;;27.63;54.16
3206;BME280;1615;53.602;11.418;2022-07-30T12:15:44;101165.75;;;27.52;54.41
3206;BME280;1615;53.602;11.418;2022-07-30T12:18:10;101198.41;;;27.74;54.96
3206;BME280;1615;53.602;11.418;2022-07-30T12:20:41;101192.34;;;27.75;55.17
3206;BME280;1615;53.602;11.418;2022-07-30T12:23:10;101212.50;;;27.77;54.64
3206;BME280;1615;53.602;11.418;2022-07-30T12:25:38;101200.34;;;27.56;55.63
3206;BME280;1615;53.602;11.418;2022-07-30T12:28:03;101205.56;;;27.47;55.22
3206;BME280;1615;53.602;11.418;2022-07-30T12:30:29;101202.72;;;27.40;55.07
3206;BME280;1615;53.602;11.418;2022-07-30T12:32:54;101181.00;;;27.51;57.48
3206;BME280;1615;53.602;11.418;2022-07-30T12:35:22;101191.44;;;27.40;57.27
3206;BME280;1615;53.602;11.418;2022-07-30T12:38:03;101197.84;;;27.30;55.26
3206;BME280;1615;53.602;11.418;2022-07-30T12:40:29;101201.00;;;27.21;55.95
3206;BME280;1615;53.602;11.418;2022-07-30T12:42:55;101174.00;;;27.10;56.31
3206;BME280;1615;53.602;11.418;2022-07-30T12:45:31;101187.41;;;27.34;55.73
3206;BME280;1615;53.602;11.418;2022-07-30T12:47:58;101184.97;;;27.29;55.53
3206;BME280;1615;53.602;11.418;2022-07-30T12:50:25;101178.91;;;27.23;56.55
3206;BME280;1615;53.602;11.418;2022-07-30T12:52:52;101191.91;;;27.56;55.82
3206;BME280;1615;53.602;11.418;2022-07-30T12:55:18;101183.44;;;27.56;55.12
3206;BME280;1615;53.602;11.418;2022-07-30T13:00:21;101120.06;;;27.08;55.77
3206;BME280;1615;53.602;11.418;2022-07-30T13:02:47;101153.66;;;27.58;54.92
3206;BME280;1615;53.602;11.418;2022-07-30T13:05:12;101160.94;;;27.63;53.35
3206;BME280;1615;53.602;11.418;2022-07-30T13:07:55;101157.75;;;27.75;52.22
3206;BME280;1615;53.602;11.418;2022-07-30T13:10:21;101172.69;;;27.89;52.12
3206;BME280;1615;53.602;11.418;2022-07-30T13:12:46;101156.19;;;27.88;51.96
3206;BME280;1615;53.602;11.418;2022-07-30T13:15:19;101168.69;;;28.25;50.74
3206;BME280;1615;53.602;11.418;2022-07-30T13:17:45;101167.91;;;28.39;49.87
3206;BME280;1615;53.602;11.418;2022-07-30T13:20:12;101160.22;;;28.11;50.65
3206;BME280;1615;53.602;11.418;2022-07-30T13:22:38;101168.28;;;28.13;50.48
3206;BME280;1615;53.602;11.418;2022-07-30T13:25:03;101165.88;;;28.15;49.92
3206;BME280;1615;53.602;11.418;2022-07-30T13:27:29;101169.50;;;28.12;50.25
3206;BME280;1615;53.602;11.418;2022-07-30T13:29:54;101165.06;;;28.25;50.11
3206;BME280;1615;53.602;11.418;2022-07-30T13:32:19;101165.88;;;28.22;51.21
3206;BME280;1615;53.602;11.418;2022-07-30T13:34:45;101144.50;;;28.14;49.56